createdAt,value
2023-06-24T00:01:06.115Z,13.97
2023-06-24T00:03:38.675Z,14.00
2023-06-24T00:06:05.623Z,13.88
2023-06-24T00:08:35.647Z,13.72
2023-06-24T00:11:03.542Z,13.61
2023-06-24T00:13:30.505Z,13.55
2023-06-24T00:15:57.221Z,13.54
2023-06-24T00:18:25.638Z,13.46
2023-06-24T00:20:52.381Z,13.38
2023-06-24T00:23:26.455Z,13.33
2023-06-24T00:25:54.130Z,13.28
2023-06-24T00:28:21.105Z,13.26
2023-06-24T00:30:50.863Z,13.29
2023-06-24T00:33:22.910Z,13.27
2023-06-24T00:35:50.845Z,13.24
2023-06-24T00:38:19.142Z,13.32
2023-06-24T00:40:48.842Z,13.29
2023-06-24T00:43:19.605Z,13.21
2023-06-24T00:45:54.237Z,13.17
2023-06-24T00:48:22.156Z,13.13
2023-06-24T00:50:52.751Z,13.07
2023-06-24T00:53:25.749Z,13.05
2023-06-24T00:55:53.749Z,13.06
2023-06-24T00:58:23.732Z,13.03
2023-06-24T01:00:58.245Z,13.01
2023-06-24T01:03:26.648Z,12.96
2023-06-24T01:05:55.072Z,13.00
2023-06-24T01:08:24.015Z,13.02
2023-06-24T01:10:53.565Z,12.96
2023-06-24T01:13:23.268Z,13.01
2023-06-24T01:15:50.305Z,12.98
2023-06-24T01:18:29.063Z,12.95
2023-06-24T01:21:14.708Z,12.95
2023-06-24T01:23:50.120Z,12.97
2023-06-24T01:26:53.307Z,12.94
2023-06-24T01:29:32.172Z,12.88
2023-06-24T01:32:16.488Z,12.84
2023-06-24T01:34:51.014Z,12.80
2023-06-24T01:37:19.380Z,12.77
2023-06-24T01:39:53.158Z,12.75
2023-06-24T01:42:20.718Z,12.71
2023-06-24T01:44:49.328Z,12.67
2023-06-24T01:47:21.070Z,12.68
2023-06-24T01:49:50.016Z,12.69
2023-06-24T01:52:17.299Z,12.71
2023-06-24T01:54:44.652Z,12.73
2023-06-24T01:57:12.443Z,12.70
2023-06-24T01:59:41.747Z,12.68
2023-06-24T02:02:09.296Z,12.72
2023-06-24T02:04:36.512Z,12.71
2023-06-24T02:07:04.572Z,12.69
2023-06-24T02:09:33.675Z,12.70
2023-06-24T02:12:03.864Z,12.66
2023-06-24T02:14:32.108Z,12.69
2023-06-24T02:17:00.266Z,12.69
2023-06-24T02:19:29.250Z,12.68
2023-06-24T02:21:58.960Z,12.67
2023-06-24T02:24:27.530Z,12.70
2023-06-24T02:26:54.962Z,12.71
2023-06-24T02:29:23.004Z,12.70
2023-06-24T02:31:50.200Z,12.72
2023-06-24T02:34:17.145Z,12.78
2023-06-24T02:36:43.840Z,12.76
2023-06-24T02:39:13.129Z,12.76
2023-06-24T02:41:39.759Z,12.75
2023-06-24T02:44:14.321Z,12.75
2023-06-24T02:46:45.154Z,12.78
2023-06-24T02:49:19.517Z,12.81
2023-06-24T02:51:46.669Z,12.77
2023-06-24T02:54:14.468Z,12.76
2023-06-24T02:57:02.040Z,12.80
2023-06-24T02:59:44.998Z,12.81
2023-06-24T03:02:13.317Z,12.82
2023-06-24T03:04:40.651Z,12.87
2023-06-24T03:07:09.895Z,12.92
2023-06-24T03:09:39.715Z,12.92
2023-06-24T03:12:07.053Z,12.95
2023-06-24T03:14:40.538Z,12.97
2023-06-24T03:17:07.255Z,12.96
2023-06-24T03:19:33.916Z,13.00
2023-06-24T03:22:00.652Z,13.05
2023-06-24T03:24:27.322Z,13.08
2023-06-24T03:26:57.895Z,13.13
2023-06-24T03:29:29.579Z,13.19
2023-06-24T03:32:11.728Z,13.25
2023-06-24T03:34:38.596Z,13.25
2023-06-24T03:37:08.261Z,13.27
2023-06-24T03:39:38.452Z,13.30
2023-06-24T03:42:06.201Z,13.41
2023-06-24T03:44:34.295Z,13.46
2023-06-24T03:47:02.304Z,13.52
2023-06-24T03:49:29.027Z,13.60
2023-06-24T03:51:55.725Z,13.71
2023-06-24T03:54:22.433Z,13.83
2023-06-24T03:56:49.387Z,14.08
2023-06-24T03:59:15.998Z,14.37
2023-06-24T04:01:45.197Z,14.65
2023-06-24T04:04:14.229Z,15.30
2023-06-24T04:06:43.368Z,16.10
2023-06-24T04:09:14.477Z,16.52
2023-06-24T04:11:43.654Z,16.94
2023-06-24T04:14:10.509Z,17.34
2023-06-24T04:16:37.526Z,17.71
2023-06-24T04:19:04.432Z,17.97
2023-06-24T04:21:31.228Z,18.60
2023-06-24T04:23:57.965Z,19.03
2023-06-24T04:26:24.840Z,19.17
2023-06-24T04:28:51.554Z,19.31
2023-06-24T04:31:18.197Z,19.84
2023-06-24T04:33:44.985Z,19.74
2023-06-24T04:36:13.968Z,19.82
2023-06-24T04:38:40.719Z,20.26
2023-06-24T04:41:07.450Z,20.57
2023-06-24T04:43:34.103Z,20.80
2023-06-24T04:46:00.751Z,20.92
2023-06-24T04:48:27.987Z,21.20
2023-06-24T04:50:59.033Z,21.13
2023-06-24T04:53:25.952Z,21.23
2023-06-24T04:55:52.667Z,21.20
2023-06-24T04:58:26.668Z,21.89
2023-06-24T05:00:54.917Z,21.94
2023-06-24T05:03:21.710Z,21.79
2023-06-24T05:05:57.045Z,21.86
2023-06-24T05:08:23.677Z,21.97
2023-06-24T05:10:52.297Z,22.06
2023-06-24T05:13:29.198Z,22.03
2023-06-24T05:15:55.829Z,22.26
2023-06-24T05:18:25.051Z,22.54
2023-06-24T05:20:54.082Z,21.99
2023-06-24T05:23:22.906Z,22.26
2023-06-24T05:25:57.242Z,22.81
2023-06-24T05:28:30.341Z,22.88
2023-06-24T05:30:57.833Z,22.43
2023-06-24T05:33:24.452Z,22.55
2023-06-24T05:35:53.127Z,22.64
2023-06-24T05:38:28.899Z,22.34
2023-06-24T05:40:55.609Z,22.90
2023-06-24T05:43:22.291Z,22.91
2023-06-24T05:45:48.970Z,22.99
2023-06-24T05:48:25.331Z,23.01
2023-06-24T05:50:54.224Z,22.89
2023-06-24T05:53:20.842Z,22.71
2023-06-24T05:55:54.080Z,22.74
2023-06-24T05:58:23.188Z,22.79
2023-06-24T06:00:57.546Z,23.30
2023-06-24T06:03:24.239Z,22.81
2023-06-24T06:05:52.042Z,22.67
2023-06-24T06:08:24.090Z,22.93
2023-06-24T06:10:54.574Z,22.95
2023-06-24T06:13:24.386Z,23.43
2023-06-24T06:15:53.778Z,22.68
2023-06-24T06:18:27.766Z,22.94
2023-06-24T06:20:54.432Z,23.52
2023-06-24T06:23:23.223Z,22.89
2023-06-24T06:25:52.859Z,23.35
2023-06-24T06:28:24.865Z,22.89
2023-06-24T06:30:54.055Z,22.16
2023-06-24T06:33:23.225Z,22.61
2023-06-24T06:35:54.999Z,22.72
2023-06-24T06:38:24.634Z,22.70
2023-06-24T06:40:58.791Z,22.20
2023-06-24T06:43:25.441Z,22.53
2023-06-24T06:45:54.433Z,22.66
2023-06-24T06:48:23.391Z,23.42
2023-06-24T06:50:54.320Z,23.70
2023-06-24T06:53:28.577Z,23.73
2023-06-24T06:56:00.500Z,23.41
2023-06-24T06:58:27.303Z,23.40
2023-06-24T07:00:53.972Z,22.85
2023-06-24T07:03:20.581Z,22.78
2023-06-24T07:05:48.782Z,23.22
2023-06-24T07:08:25.221Z,23.03
2023-06-24T07:10:51.907Z,22.51
2023-06-24T07:13:22.987Z,22.94
2023-06-24T07:15:57.235Z,23.07
2023-06-24T07:18:24.199Z,23.23
2023-06-24T07:21:01.056Z,23.44
2023-06-24T07:23:27.750Z,23.25
2023-06-24T07:26:05.941Z,23.10
2023-06-24T07:28:32.652Z,23.11
2023-06-24T07:30:59.298Z,23.19
2023-06-24T07:33:26.436Z,22.06
2023-06-24T07:36:02.243Z,22.70
2023-06-24T07:38:32.098Z,23.14
2023-06-24T07:40:58.769Z,23.28
2023-06-24T07:43:32.753Z,23.18
2023-06-24T07:45:59.400Z,23.44
2023-06-24T07:48:26.022Z,22.97
2023-06-24T07:50:52.754Z,22.89
2023-06-24T07:53:22.267Z,22.86
2023-06-24T07:55:51.668Z,23.04
2023-06-24T07:58:20.329Z,22.57
2023-06-24T08:00:53.012Z,23.03
2023-06-24T08:03:27.180Z,23.07
2023-06-24T08:05:54.208Z,22.95
2023-06-24T08:08:23.470Z,23.04
2023-06-24T08:10:50.149Z,22.52
2023-06-24T08:13:16.814Z,23.03
2023-06-24T08:15:43.658Z,22.71
2023-06-24T08:18:10.385Z,23.04
2023-06-24T08:20:37.057Z,22.66
2023-06-24T08:23:03.775Z,22.75
2023-06-24T08:25:31.543Z,23.17
2023-06-24T08:27:58.147Z,23.43
2023-06-24T08:30:25.033Z,23.51
2023-06-24T08:32:52.688Z,23.53
2023-06-24T08:35:19.429Z,23.46
2023-06-24T08:37:48.680Z,23.54
2023-06-24T08:40:15.287Z,22.92
2023-06-24T08:42:42.259Z,23.57
2023-06-24T08:45:09.276Z,23.33
2023-06-24T08:47:36.512Z,22.73
2023-06-24T08:50:09.836Z,23.22
2023-06-24T08:52:38.126Z,23.42
2023-06-24T08:55:07.748Z,23.51
2023-06-24T08:57:34.449Z,23.44
2023-06-24T09:00:03.037Z,23.58
2023-06-24T09:02:33.992Z,23.31
2023-06-24T09:05:08.013Z,23.65
2023-06-24T09:07:35.018Z,24.08
2023-06-24T09:10:04.910Z,23.11
2023-06-24T09:12:49.113Z,23.34
2023-06-24T09:15:22.919Z,23.59
2023-06-24T09:17:49.648Z,23.59
2023-06-24T09:20:21.161Z,23.98
2023-06-24T09:22:53.834Z,23.83
2023-06-24T09:25:20.991Z,23.44
2023-06-24T09:27:53.641Z,23.58
2023-06-24T09:30:29.824Z,23.18
2023-06-24T09:32:56.909Z,23.62
2023-06-24T09:35:25.693Z,23.94
2023-06-24T09:37:54.969Z,23.76
2023-06-24T09:40:22.437Z,23.54
2023-06-24T09:43:01.509Z,24.05
2023-06-24T09:45:29.598Z,24.41
2023-06-24T09:47:57.231Z,24.72
2023-06-24T09:50:24.003Z,24.60
2023-06-24T09:52:58.953Z,24.48
2023-06-24T09:55:26.354Z,24.52
2023-06-24T09:57:54.332Z,24.76
2023-06-24T10:00:20.971Z,24.83
2023-06-24T10:02:48.890Z,24.66
2023-06-24T10:05:16.012Z,25.04
2023-06-24T10:07:43.213Z,25.22
2023-06-24T10:10:10.599Z,25.14
2023-06-24T10:12:37.656Z,24.75
2023-06-24T10:15:05.297Z,24.71
2023-06-24T10:17:34.566Z,24.13
2023-06-24T10:20:05.728Z,24.05
2023-06-24T10:22:33.915Z,24.21
2023-06-24T10:25:06.848Z,24.28
2023-06-24T10:27:40.809Z,24.26
2023-06-24T10:30:09.065Z,24.47
2023-06-24T10:32:45.893Z,24.44
2023-06-24T10:35:23.895Z,23.78
2023-06-24T10:38:11.338Z,23.75
2023-06-24T10:40:42.819Z,24.00
2023-06-24T10:43:24.005Z,24.11
2023-06-24T10:45:52.006Z,24.31
2023-06-24T10:48:20.877Z,24.41
2023-06-24T10:50:54.119Z,25.04
2023-06-24T10:53:22.806Z,25.38
2023-06-24T10:55:54.444Z,25.26
2023-06-24T10:58:22.984Z,25.16
2023-06-24T11:01:07.707Z,25.11
2023-06-24T11:03:35.554Z,25.28
2023-06-24T11:06:05.432Z,25.30
2023-06-24T11:08:32.152Z,25.26
2023-06-24T11:10:58.823Z,24.39
2023-06-24T11:13:25.599Z,24.28
2023-06-24T11:15:54.660Z,24.69
2023-06-24T11:18:24.431Z,25.04
2023-06-24T11:20:54.819Z,25.20
2023-06-24T11:23:23.353Z,25.17
2023-06-24T11:25:54.337Z,25.35
2023-06-24T11:28:23.294Z,25.31
2023-06-24T11:30:59.769Z,25.53
2023-06-24T11:33:29.820Z,25.33
2023-06-24T11:35:56.618Z,25.57
2023-06-24T11:38:32.994Z,25.90
2023-06-24T11:40:59.800Z,26.08
2023-06-24T11:43:27.444Z,25.53
2023-06-24T11:45:54.158Z,25.45
2023-06-24T11:48:28.766Z,25.66
2023-06-24T11:50:56.236Z,25.39
2023-06-24T11:53:43.478Z,25.42
2023-06-24T11:56:10.736Z,25.62
2023-06-24T11:58:43.338Z,25.33
2023-06-24T12:01:10.080Z,25.26
2023-06-24T12:03:36.924Z,25.71
2023-06-24T12:06:03.744Z,25.46
2023-06-24T12:08:39.400Z,26.02
2023-06-24T12:11:17.150Z,26.24
2023-06-24T12:13:44.017Z,26.76
2023-06-24T12:16:10.655Z,26.54
2023-06-24T12:18:37.758Z,26.54
2023-06-24T12:21:04.466Z,26.67
2023-06-24T12:23:31.086Z,26.16
2023-06-24T12:26:00.353Z,26.53
2023-06-24T12:28:27.023Z,27.00
2023-06-24T12:30:56.207Z,27.35
2023-06-24T12:33:23.947Z,27.13
2023-06-24T12:35:56.734Z,26.52
2023-06-24T12:38:25.969Z,26.93
2023-06-24T12:40:53.715Z,27.77
2023-06-24T12:43:26.484Z,27.71
2023-06-24T12:45:56.820Z,27.33
2023-06-24T12:48:37.984Z,26.96
2023-06-24T12:51:04.635Z,26.99
2023-06-24T12:53:31.397Z,26.71
2023-06-24T12:55:58.044Z,26.82
2023-06-24T12:58:26.292Z,26.94
2023-06-24T13:00:55.210Z,26.35
2023-06-24T13:03:22.931Z,25.90
2023-06-24T13:05:54.991Z,25.35
2023-06-24T13:08:24.165Z,25.87
2023-06-24T13:10:58.328Z,26.49
2023-06-24T13:13:24.992Z,26.67
2023-06-24T13:15:59.138Z,27.00
2023-06-24T13:18:25.794Z,26.67
2023-06-24T13:20:55.775Z,26.60
2023-06-24T13:23:30.359Z,26.88
2023-06-24T13:25:57.023Z,26.69
2023-06-24T13:28:26.198Z,26.72
2023-06-24T13:30:55.637Z,26.78
2023-06-24T13:33:24.505Z,26.49
2023-06-24T13:35:52.530Z,26.59
2023-06-24T13:38:29.402Z,26.08
2023-06-24T13:40:56.050Z,25.73
2023-06-24T13:43:25.131Z,25.66
2023-06-24T13:45:52.825Z,25.55
2023-06-24T13:48:24.333Z,26.04
2023-06-24T13:50:53.534Z,26.14
2023-06-24T13:53:20.185Z,26.43
2023-06-24T13:55:46.843Z,26.66
2023-06-24T13:58:13.652Z,26.71
2023-06-24T14:00:40.961Z,26.43
2023-06-24T14:03:13.439Z,27.04
2023-06-24T14:05:40.430Z,26.89
2023-06-24T14:08:07.231Z,27.33
2023-06-24T14:10:34.139Z,26.80
2023-06-24T14:13:00.939Z,26.68
2023-06-24T14:15:27.540Z,26.70
2023-06-24T14:17:54.371Z,26.72
2023-06-24T14:20:21.102Z,26.67
2023-06-24T14:23:01.805Z,26.45
2023-06-24T14:25:28.461Z,26.72
2023-06-24T14:27:55.122Z,26.47
2023-06-24T14:30:24.301Z,25.86
2023-06-24T14:32:51.072Z,25.89
2023-06-24T14:35:17.823Z,25.89
2023-06-24T14:37:44.435Z,25.80
2023-06-24T14:40:11.215Z,26.17
2023-06-24T14:42:40.468Z,26.12
2023-06-24T14:45:07.443Z,26.03
2023-06-24T14:47:36.885Z,25.79
2023-06-24T14:50:05.046Z,25.83
2023-06-24T14:52:34.625Z,25.80
2023-06-24T14:55:06.663Z,26.10
2023-06-24T14:57:36.484Z,26.09
2023-06-24T15:00:07.302Z,26.16
2023-06-24T15:02:36.604Z,26.22
2023-06-24T15:05:04.063Z,26.07
2023-06-24T15:07:34.876Z,25.88
2023-06-24T15:10:07.191Z,25.55
2023-06-24T15:12:36.295Z,25.67
2023-06-24T15:15:06.448Z,26.11
2023-06-24T15:17:37.317Z,26.24
2023-06-24T15:20:09.589Z,26.47
2023-06-24T15:22:36.280Z,26.33
2023-06-24T15:25:06.666Z,26.23
2023-06-24T15:27:35.517Z,26.25
2023-06-24T15:30:04.876Z,26.36
2023-06-24T15:32:35.077Z,26.49
2023-06-24T15:35:07.682Z,26.32
2023-06-24T15:37:37.303Z,26.33
2023-06-24T15:40:04.229Z,26.34
2023-06-24T15:42:31.118Z,26.37
2023-06-24T15:44:57.844Z,26.48
2023-06-24T15:47:24.609Z,26.46
2023-06-24T15:49:52.905Z,26.73
2023-06-24T15:52:24.824Z,26.80
2023-06-24T15:54:51.453Z,26.56
2023-06-24T15:57:18.099Z,26.51
2023-06-24T15:59:44.687Z,26.53
2023-06-24T16:02:11.312Z,26.31
2023-06-24T16:04:38.056Z,26.34
2023-06-24T16:07:05.009Z,26.52
2023-06-24T16:09:31.749Z,26.61
2023-06-24T16:11:58.467Z,26.73
2023-06-24T16:14:25.125Z,26.41
2023-06-24T16:16:52.907Z,26.29
2023-06-24T16:19:19.579Z,26.44
2023-06-24T16:21:47.221Z,26.40
2023-06-24T16:24:16.696Z,26.57
2023-06-24T16:26:52.404Z,26.40
2023-06-24T16:29:20.182Z,26.24
2023-06-24T16:31:46.890Z,26.24
2023-06-24T16:34:23.745Z,25.93
2023-06-24T16:36:51.887Z,26.03
2023-06-24T16:39:19.770Z,25.88
2023-06-24T16:41:46.499Z,26.19
2023-06-24T16:44:13.246Z,26.46
2023-06-24T16:46:39.925Z,26.49
2023-06-24T16:49:08.425Z,26.54
2023-06-24T16:51:35.521Z,26.57
2023-06-24T16:54:02.410Z,26.57
2023-06-24T16:56:29.616Z,26.01
2023-06-24T16:58:56.290Z,26.04
2023-06-24T17:01:25.238Z,26.40
2023-06-24T17:03:51.941Z,26.60
2023-06-24T17:06:18.620Z,26.49
2023-06-24T17:08:45.281Z,26.51
2023-06-24T17:11:11.958Z,26.39
2023-06-24T17:13:43.478Z,25.45
2023-06-24T17:16:10.214Z,25.00
2023-06-24T17:18:36.913Z,25.08
2023-06-24T17:21:03.722Z,25.00
2023-06-24T17:23:30.309Z,24.88
2023-06-24T17:25:57.023Z,24.72
2023-06-24T17:28:26.266Z,24.57
2023-06-24T17:30:53.140Z,24.82
2023-06-24T17:36:01.299Z,24.12
2023-06-24T17:38:28.096Z,24.22
2023-06-24T17:40:54.726Z,24.23
2023-06-24T17:43:27.399Z,24.29
2023-06-24T17:45:56.211Z,24.70
2023-06-24T17:48:23.686Z,24.86
2023-06-24T17:50:51.540Z,24.85
2023-06-24T17:53:21.966Z,25.15
2023-06-24T17:55:48.718Z,25.17
2023-06-24T17:58:15.369Z,25.04
2023-06-24T18:00:42.151Z,24.92
2023-06-24T18:03:12.190Z,24.96
2023-06-24T18:05:41.299Z,25.08
2023-06-24T18:08:08.001Z,25.04
2023-06-24T18:10:36.725Z,24.46
2023-06-24T18:13:05.570Z,24.05
2023-06-24T18:15:32.232Z,23.69
2023-06-24T18:17:59.003Z,23.20
2023-06-24T18:20:25.833Z,23.01
2023-06-24T18:22:52.601Z,22.75
2023-06-24T18:25:19.245Z,22.66
2023-06-24T18:27:45.874Z,22.62
2023-06-24T18:30:12.637Z,22.50
2023-06-24T18:32:41.713Z,22.36
2023-06-24T18:35:08.710Z,22.23
2023-06-24T18:37:35.387Z,22.10
2023-06-24T18:40:10.017Z,21.88
2023-06-24T18:42:36.698Z,21.74
2023-06-24T18:45:03.895Z,21.62
2023-06-24T18:47:38.041Z,21.54
2023-06-24T18:50:05.077Z,21.34
2023-06-24T18:52:36.533Z,21.31
2023-06-24T18:55:05.886Z,21.27
2023-06-24T18:57:34.933Z,21.22
2023-06-24T19:00:06.915Z,21.11
2023-06-24T19:02:36.040Z,21.00
2023-06-24T19:05:05.634Z,20.94
2023-06-24T19:07:39.682Z,20.86
2023-06-24T19:10:06.543Z,20.78
2023-06-24T19:12:35.136Z,20.71
2023-06-24T19:15:01.797Z,20.65
2023-06-24T19:17:33.330Z,20.58
2023-06-24T19:20:03.850Z,20.58
2023-06-24T19:22:36.491Z,20.51
2023-06-24T19:25:03.320Z,20.49
2023-06-24T19:27:29.935Z,20.46
2023-06-24T19:29:56.528Z,20.40
2023-06-24T19:32:35.186Z,20.25
2023-06-24T19:35:10.776Z,20.16
2023-06-24T19:37:37.424Z,20.06
2023-06-24T19:40:05.027Z,19.98
2023-06-24T19:42:44.355Z,19.93
2023-06-24T19:45:11.255Z,19.97
2023-06-24T19:47:37.937Z,19.99
2023-06-24T19:50:05.760Z,19.92
2023-06-24T19:52:34.288Z,19.89
2023-06-24T19:55:05.363Z,19.83
2023-06-24T19:57:52.302Z,19.70
2023-06-24T20:00:19.437Z,19.63
2023-06-24T20:02:46.961Z,19.63
2023-06-24T20:05:14.434Z,19.55
2023-06-24T20:07:41.145Z,19.49
2023-06-24T20:10:08.547Z,19.51
2023-06-24T20:12:35.211Z,19.42
2023-06-24T20:15:04.663Z,19.34
2023-06-24T20:17:33.942Z,19.33
2023-06-24T20:20:06.218Z,19.29
2023-06-24T20:22:40.411Z,19.25
2023-06-24T20:25:07.447Z,19.22
2023-06-24T20:27:34.801Z,19.22
2023-06-24T20:30:05.616Z,19.25
2023-06-24T20:32:36.104Z,19.19
2023-06-24T20:35:10.328Z,19.10
2023-06-24T20:37:36.995Z,19.06
2023-06-24T20:40:06.763Z,19.07
2023-06-24T20:42:40.899Z,19.14
2023-06-24T20:45:09.027Z,19.14
2023-06-24T20:47:35.742Z,19.17
2023-06-24T20:50:02.429Z,19.25
2023-06-24T20:52:29.146Z,19.18
2023-06-24T20:54:55.827Z,19.27
2023-06-24T20:57:22.475Z,19.31
2023-06-24T20:59:49.241Z,19.36
2023-06-24T21:02:15.983Z,19.26
2023-06-24T21:04:43.144Z,19.16
2023-06-24T21:07:09.819Z,19.34
2023-06-24T21:09:36.545Z,19.32
2023-06-24T21:12:03.362Z,19.30
2023-06-24T21:14:29.942Z,19.37
2023-06-24T21:16:56.602Z,19.27
2023-06-24T21:19:23.289Z,19.32
2023-06-24T21:21:52.034Z,19.37
2023-06-24T21:24:18.723Z,19.37
2023-06-24T21:26:48.562Z,19.43
2023-06-24T21:29:18.210Z,19.36
2023-06-24T21:31:47.837Z,19.28
2023-06-24T21:34:16.735Z,19.19
2023-06-24T21:36:45.911Z,19.10
2023-06-24T21:39:14.906Z,19.15
2023-06-24T21:41:45.956Z,19.13
2023-06-24T21:44:20.298Z,19.10
2023-06-24T21:46:46.979Z,19.13
2023-06-24T21:49:16.489Z,19.10
2023-06-24T21:52:00.797Z,18.99
2023-06-24T21:54:27.452Z,18.97
2023-06-24T21:56:54.099Z,18.96
2023-06-24T21:59:23.260Z,18.90
2023-06-24T22:01:49.945Z,18.89
2023-06-24T22:04:16.772Z,18.96
2023-06-24T22:06:43.710Z,18.93
2023-06-24T22:09:14.509Z,18.88
2023-06-24T22:11:46.516Z,18.86
2023-06-24T22:14:24.415Z,18.78
2023-06-24T22:16:51.084Z,18.79
2023-06-24T22:19:18.186Z,18.85
2023-06-24T22:21:44.821Z,18.74
2023-06-24T22:24:14.874Z,18.74
2023-06-24T22:26:49.135Z,18.61
2023-06-24T22:29:15.821Z,18.58
2023-06-24T22:31:49.723Z,18.53
2023-06-24T22:34:16.515Z,18.42
2023-06-24T22:36:45.190Z,18.41
2023-06-24T22:39:17.405Z,18.38
2023-06-24T22:41:44.044Z,18.35
2023-06-24T22:44:10.791Z,18.41
2023-06-24T22:46:37.593Z,18.43
2023-06-24T22:49:04.283Z,18.44
2023-06-24T22:51:31.953Z,18.41
2023-06-24T22:53:58.880Z,18.39
2023-06-24T22:56:25.609Z,18.36
2023-06-24T22:58:52.622Z,18.30
2023-06-24T23:01:19.291Z,18.33
2023-06-24T23:03:46.270Z,18.39
2023-06-24T23:06:20.884Z,18.31
2023-06-24T23:08:47.730Z,18.28
2023-06-24T23:11:14.504Z,18.16
2023-06-24T23:13:42.321Z,18.15
2023-06-24T23:16:09.573Z,18.13
2023-06-24T23:18:36.475Z,18.17
2023-06-24T23:21:03.746Z,18.15
2023-06-24T23:23:37.298Z,18.06
2023-06-24T23:26:11.220Z,18.05
2023-06-24T23:28:39.022Z,17.99
2023-06-24T23:31:06.175Z,17.92
2023-06-24T23:33:33.904Z,17.98
2023-06-24T23:36:03.036Z,18.01
2023-06-24T23:38:29.766Z,18.09
2023-06-24T23:40:57.888Z,17.98
2023-06-24T23:43:27.301Z,17.91
2023-06-24T23:45:54.334Z,17.86
2023-06-24T23:48:25.091Z,17.95
2023-06-24T23:50:51.779Z,17.93
2023-06-24T23:53:18.443Z,17.91
2023-06-24T23:55:45.090Z,17.82
2023-06-24T23:58:18.969Z,17.81
